sensor_id;sensor_type;location;lat;lon;timestamp;P1;durP1;ratioP1;P2;durP2;ratioP2
86001;SDS011;76581;51.988;5.854;2024-03-07T00:00:44;37.08;;;16.23;;
86001;SDS011;76581;51.988;5.854;2024-03-07T00:01:45;36.10;;;16.08;;
86001;SDS011;76581;51.988;5.854;2024-03-07T00:02:47;35.63;;;15.55;;
86001;SDS011;76581;51.988;5.854;2024-03-07T00:03:49;39.22;;;16.73;;
86001;SDS011;76581;51.988;5.854;2024-03-07T00:04:50;33.53;;;14.80;;
86001;SDS011;76581;51.988;5.854;2024-03-07T00:05:51;33.27;;;15.53;;
86001;SDS011;76581;51.988;5.854;2024-03-07T00:06:52;36.30;;;17.00;;
86001;SDS011;76581;51.988;5.854;2024-03-07T00:07:53;34.83;;;15.47;;
86001;SDS011;76581;51.988;5.854;2024-03-07T00:08:54;34.65;;;15.63;;
86001;SDS011;76581;51.988;5.854;2024-03-07T00:09:55;37.95;;;16.85;;
86001;SDS011;76581;51.988;5.854;2024-03-07T00:10:56;36.78;;;15.90;;
86001;SDS011;76581;51.988;5.854;2024-03-07T00:11:56;33.87;;;14.90;;
86001;SDS011;76581;51.988;5.854;2024-03-07T00:12:57;35.63;;;15.50;;
86001;SDS011;76581;51.988;5.854;2024-03-07T00:13:57;34.30;;;15.13;;
86001;SDS011;76581;51.988;5.854;2024-03-07T00:14:58;36.65;;;16.20;;
86001;SDS011;76581;51.988;5.854;2024-03-07T00:15:59;35.97;;;15.70;;
86001;SDS011;76581;51.988;5.854;2024-03-07T00:16:59;32.78;;;14.52;;
86001;SDS011;76581;51.988;5.854;2024-03-07T00:18:00;35.23;;;15.33;;
86001;SDS011;76581;51.988;5.854;2024-03-07T00:19:00;34.33;;;15.82;;
86001;SDS011;76581;51.988;5.854;2024-03-07T00:20:01;34.57;;;15.47;;
86001;SDS011;76581;51.988;5.854;2024-03-07T00:21:04;34.67;;;15.05;;
86001;SDS011;76581;51.988;5.854;2024-03-07T00:22:04;37.47;;;15.83;;
86001;SDS011;76581;51.988;5.854;2024-03-07T00:23:05;39.95;;;15.95;;
86001;SDS011;76581;51.988;5.854;2024-03-07T00:24:06;36.13;;;15.43;;
86001;SDS011;76581;51.988;5.854;2024-03-07T00:25:07;39.92;;;16.85;;
86001;SDS011;76581;51.988;5.854;2024-03-07T00:26:09;36.08;;;15.82;;
86001;SDS011;76581;51.988;5.854;2024-03-07T00:27:09;33.63;;;16.17;;
86001;SDS011;76581;51.988;5.854;2024-03-07T00:28:10;39.42;;;16.25;;
86001;SDS011;76581;51.988;5.854;2024-03-07T00:29:10;36.03;;;16.13;;
86001;SDS011;76581;51.988;5.854;2024-03-07T00:30:11;37.72;;;16.73;;
86001;SDS011;76581;51.988;5.854;2024-03-07T00:31:18;36.05;;;16.20;;
86001;SDS011;76581;51.988;5.854;2024-03-07T00:32:21;36.58;;;15.57;;
86001;SDS011;76581;51.988;5.854;2024-03-07T00:33:23;36.72;;;16.20;;
86001;SDS011;76581;51.988;5.854;2024-03-07T00:34:25;35.78;;;15.23;;
86001;SDS011;76581;51.988;5.854;2024-03-07T00:35:25;33.38;;;14.75;;
86001;SDS011;76581;51.988;5.854;2024-03-07T00:36:27;38.85;;;16.02;;
86001;SDS011;76581;51.988;5.854;2024-03-07T00:37:28;33.45;;;15.95;;
86001;SDS011;76581;51.988;5.854;2024-03-07T00:38:28;37.80;;;16.20;;
86001;SDS011;76581;51.988;5.854;2024-03-07T00:39:29;38.53;;;16.35;;
86001;SDS011;76581;51.988;5.854;2024-03-07T00:40:29;34.20;;;15.43;;
86001;SDS011;76581;51.988;5.854;2024-03-07T00:41:31;36.83;;;15.50;;
86001;SDS011;76581;51.988;5.854;2024-03-07T00:42:31;38.13;;;16.17;;
86001;SDS011;76581;51.988;5.854;2024-03-07T00:43:32;35.50;;;15.73;;
86001;SDS011;76581;51.988;5.854;2024-03-07T00:44:32;33.40;;;14.57;;
86001;SDS011;76581;51.988;5.854;2024-03-07T00:45:34;33.92;;;15.52;;
86001;SDS011;76581;51.988;5.854;2024-03-07T00:46:35;38.27;;;16.87;;
86001;SDS011;76581;51.988;5.854;2024-03-07T00:47:36;38.40;;;16.02;;
86001;SDS011;76581;51.988;5.854;2024-03-07T00:48:38;38.28;;;16.50;;
86001;SDS011;76581;51.988;5.854;2024-03-07T00:49:38;37.63;;;16.43;;
86001;SDS011;76581;51.988;5.854;2024-03-07T00:50:39;32.63;;;15.07;;
86001;SDS011;76581;51.988;5.854;2024-03-07T00:51:39;40.97;;;16.73;;
86001;SDS011;76581;51.988;5.854;2024-03-07T00:52:40;35.78;;;15.98;;
86001;SDS011;76581;51.988;5.854;2024-03-07T00:53:40;37.23;;;16.60;;
86001;SDS011;76581;51.988;5.854;2024-03-07T00:54:41;40.25;;;17.08;;
86001;SDS011;76581;51.988;5.854;2024-03-07T00:55:42;41.60;;;17.23;;
86001;SDS011;76581;51.988;5.854;2024-03-07T00:56:43;35.72;;;16.45;;
86001;SDS011;76581;51.988;5.854;2024-03-07T00:57:44;35.40;;;16.67;;
86001;SDS011;76581;51.988;5.854;2024-03-07T00:58:45;34.67;;;15.67;;
86001;SDS011;76581;51.988;5.854;2024-03-07T00:59:46;38.55;;;16.95;;
86001;SDS011;76581;51.988;5.854;2024-03-07T01:00:48;38.33;;;16.08;;
86001;SDS011;76581;51.988;5.854;2024-03-07T01:01:49;38.08;;;16.95;;
86001;SDS011;76581;51.988;5.854;2024-03-07T01:02:50;37.15;;;15.82;;
86001;SDS011;76581;51.988;5.854;2024-03-07T01:03:53;39.63;;;17.10;;
86001;SDS011;76581;51.988;5.854;2024-03-07T01:04:53;40.53;;;16.73;;
86001;SDS011;76581;51.988;5.854;2024-03-07T01:05:54;42.50;;;17.70;;
86001;SDS011;76581;51.988;5.854;2024-03-07T01:06:55;33.47;;;14.93;;
86001;SDS011;76581;51.988;5.854;2024-03-07T01:07:55;36.67;;;15.93;;
86001;SDS011;76581;51.988;5.854;2024-03-07T01:08:56;33.80;;;15.27;;
86001;SDS011;76581;51.988;5.854;2024-03-07T01:09:56;36.40;;;16.15;;
86001;SDS011;76581;51.988;5.854;2024-03-07T01:11:00;36.67;;;15.93;;
86001;SDS011;76581;51.988;5.854;2024-03-07T01:12:01;37.67;;;15.38;;
86001;SDS011;76581;51.988;5.854;2024-03-07T01:13:04;35.95;;;16.20;;
86001;SDS011;76581;51.988;5.854;2024-03-07T01:14:07;38.67;;;16.38;;
86001;SDS011;76581;51.988;5.854;2024-03-07T01:15:08;36.77;;;16.23;;
86001;SDS011;76581;51.988;5.854;2024-03-07T01:16:10;34.80;;;16.08;;
86001;SDS011;76581;51.988;5.854;2024-03-07T01:17:11;37.47;;;16.42;;
86001;SDS011;76581;51.988;5.854;2024-03-07T01:18:11;38.47;;;17.10;;
86001;SDS011;76581;51.988;5.854;2024-03-07T01:19:12;35.90;;;15.85;;
86001;SDS011;76581;51.988;5.854;2024-03-07T01:20:13;36.72;;;16.23;;
86001;SDS011;76581;51.988;5.854;2024-03-07T01:21:13;38.77;;;16.13;;
86001;SDS011;76581;51.988;5.854;2024-03-07T01:22:14;41.63;;;15.88;;
86001;SDS011;76581;51.988;5.854;2024-03-07T01:23:15;36.03;;;16.20;;
86001;SDS011;76581;51.988;5.854;2024-03-07T01:24:16;38.05;;;16.25;;
86001;SDS011;76581;51.988;5.854;2024-03-07T01:25:18;35.33;;;15.60;;
86001;SDS011;76581;51.988;5.854;2024-03-07T01:26:18;34.47;;;14.85;;
86001;SDS011;76581;51.988;5.854;2024-03-07T01:27:19;34.57;;;16.13;;
86001;SDS011;76581;51.988;5.854;2024-03-07T01:28:19;40.75;;;17.33;;
86001;SDS011;76581;51.988;5.854;2024-03-07T01:29:20;34.70;;;16.57;;
86001;SDS011;76581;51.988;5.854;2024-03-07T01:30:20;38.22;;;17.98;;
86001;SDS011;76581;51.988;5.854;2024-03-07T01:31:23;39.75;;;17.48;;
86001;SDS011;76581;51.988;5.854;2024-03-07T01:32:24;38.72;;;16.80;;
86001;SDS011;76581;51.988;5.854;2024-03-07T01:33:24;40.75;;;19.58;;
86001;SDS011;76581;51.988;5.854;2024-03-07T01:34:25;40.00;;;17.55;;
86001;SDS011;76581;51.988;5.854;2024-03-07T01:35:26;36.90;;;17.77;;
86001;SDS011;76581;51.988;5.854;2024-03-07T01:36:26;40.83;;;18.60;;
86001;SDS011;76581;51.988;5.854;2024-03-07T01:37:26;41.50;;;17.30;;
86001;SDS011;76581;51.988;5.854;2024-03-07T01:38:28;44.80;;;19.40;;
86001;SDS011;76581;51.988;5.854;2024-03-07T01:39:29;39.13;;;17.17;;
86001;SDS011;76581;51.988;5.854;2024-03-07T01:40:29;44.63;;;19.23;;
86001;SDS011;76581;51.988;5.854;2024-03-07T01:41:30;45.10;;;20.07;;
86001;SDS011;76581;51.988;5.854;2024-03-07T01:42:30;42.60;;;17.55;;
86001;SDS011;76581;51.988;5.854;2024-03-07T01:43:31;38.70;;;16.57;;
86001;SDS011;76581;51.988;5.854;2024-03-07T01:44:32;37.83;;;17.48;;
86001;SDS011;76581;51.988;5.854;2024-03-07T01:45:32;37.67;;;17.10;;
86001;SDS011;76581;51.988;5.854;2024-03-07T01:46:33;37.85;;;16.63;;
86001;SDS011;76581;51.988;5.854;2024-03-07T01:47:34;35.47;;;16.70;;
86001;SDS011;76581;51.988;5.854;2024-03-07T01:48:36;36.72;;;17.02;;
86001;SDS011;76581;51.988;5.854;2024-03-07T01:49:38;38.78;;;17.30;;
86001;SDS011;76581;51.988;5.854;2024-03-07T01:50:39;45.13;;;18.00;;
86001;SDS011;76581;51.988;5.854;2024-03-07T01:51:39;38.43;;;16.97;;
86001;SDS011;76581;51.988;5.854;2024-03-07T01:52:40;38.97;;;16.55;;
86001;SDS011;76581;51.988;5.854;2024-03-07T01:53:42;36.10;;;16.85;;
86001;SDS011;76581;51.988;5.854;2024-03-07T01:54:42;34.30;;;15.90;;
86001;SDS011;76581;51.988;5.854;2024-03-07T01:55:43;37.72;;;17.05;;
86001;SDS011;76581;51.988;5.854;2024-03-07T01:56:44;34.55;;;15.75;;
86001;SDS011;76581;51.988;5.854;2024-03-07T01:57:44;34.73;;;15.63;;
86001;SDS011;76581;51.988;5.854;2024-03-07T01:58:46;38.42;;;16.67;;
86001;SDS011;76581;51.988;5.854;2024-03-07T01:59:47;38.37;;;17.17;;
86001;SDS011;76581;51.988;5.854;2024-03-07T02:00:48;36.35;;;16.58;;
86001;SDS011;76581;51.988;5.854;2024-03-07T02:01:48;39.57;;;17.27;;
86001;SDS011;76581;51.988;5.854;2024-03-07T02:02:50;37.92;;;15.77;;
86001;SDS011;76581;51.988;5.854;2024-03-07T02:03:53;40.03;;;15.40;;
86001;SDS011;76581;51.988;5.854;2024-03-07T02:04:53;37.53;;;16.10;;
86001;SDS011;76581;51.988;5.854;2024-03-07T02:05:54;38.33;;;16.03;;
86001;SDS011;76581;51.988;5.854;2024-03-07T02:06:56;32.60;;;14.70;;
86001;SDS011;76581;51.988;5.854;2024-03-07T02:07:57;37.63;;;15.43;;
86001;SDS011;76581;51.988;5.854;2024-03-07T02:08:58;37.60;;;15.33;;
86001;SDS011;76581;51.988;5.854;2024-03-07T02:10:05;35.30;;;15.50;;
86001;SDS011;76581;51.988;5.854;2024-03-07T02:11:06;38.70;;;16.70;;
86001;SDS011;76581;51.988;5.854;2024-03-07T02:12:08;37.30;;;15.55;;
86001;SDS011;76581;51.988;5.854;2024-03-07T02:13:09;36.42;;;15.55;;
86001;SDS011;76581;51.988;5.854;2024-03-07T02:14:09;37.13;;;15.83;;
86001;SDS011;76581;51.988;5.854;2024-03-07T02:15:10;39.13;;;16.35;;
86001;SDS011;76581;51.988;5.854;2024-03-07T02:16:11;34.80;;;15.67;;
86001;SDS011;76581;51.988;5.854;2024-03-07T02:17:11;39.22;;;16.35;;
86001;SDS011;76581;51.988;5.854;2024-03-07T02:18:12;42.42;;;16.42;;
86001;SDS011;76581;51.988;5.854;2024-03-07T02:19:13;41.03;;;16.50;;
86001;SDS011;76581;51.988;5.854;2024-03-07T02:20:15;35.97;;;16.45;;
86001;SDS011;76581;51.988;5.854;2024-03-07T02:21:16;34.70;;;15.55;;
86001;SDS011;76581;51.988;5.854;2024-03-07T02:22:17;37.97;;;16.00;;
86001;SDS011;76581;51.988;5.854;2024-03-07T02:23:18;38.15;;;16.88;;
86001;SDS011;76581;51.988;5.854;2024-03-07T02:24:18;37.20;;;16.13;;
86001;SDS011;76581;51.988;5.854;2024-03-07T02:25:19;35.35;;;16.38;;
86001;SDS011;76581;51.988;5.854;2024-03-07T02:26:19;36.83;;;16.42;;
86001;SDS011;76581;51.988;5.854;2024-03-07T02:27:20;35.43;;;14.83;;
86001;SDS011;76581;51.988;5.854;2024-03-07T02:28:20;35.47;;;15.83;;
86001;SDS011;76581;51.988;5.854;2024-03-07T02:29:21;37.53;;;15.18;;
86001;SDS011;76581;51.988;5.854;2024-03-07T02:30:22;35.33;;;16.27;;
86001;SDS011;76581;51.988;5.854;2024-03-07T02:31:22;39.55;;;16.05;;
86001;SDS011;76581;51.988;5.854;2024-03-07T02:32:35;36.55;;;15.52;;
86001;SDS011;76581;51.988;5.854;2024-03-07T02:33:37;43.57;;;18.03;;
86001;SDS011;76581;51.988;5.854;2024-03-07T02:34:38;37.95;;;16.17;;
86001;SDS011;76581;51.988;5.854;2024-03-07T02:35:39;36.83;;;16.13;;
86001;SDS011;76581;51.988;5.854;2024-03-07T02:36:39;42.57;;;16.03;;
86001;SDS011;76581;51.988;5.854;2024-03-07T02:37:40;36.30;;;16.02;;
86001;SDS011;76581;51.988;5.854;2024-03-07T02:38:40;40.87;;;17.30;;
86001;SDS011;76581;51.988;5.854;2024-03-07T02:39:41;40.23;;;17.43;;
86001;SDS011;76581;51.988;5.854;2024-03-07T02:40:41;41.38;;;16.50;;
86001;SDS011;76581;51.988;5.854;2024-03-07T02:41:42;39.37;;;16.80;;
86001;SDS011;76581;51.988;5.854;2024-03-07T02:42:43;43.22;;;17.08;;
86001;SDS011;76581;51.988;5.854;2024-03-07T02:43:43;38.55;;;16.45;;
86001;SDS011;76581;51.988;5.854;2024-03-07T02:44:44;39.67;;;16.15;;
86001;SDS011;76581;51.988;5.854;2024-03-07T02:45:44;40.50;;;16.27;;
86001;SDS011;76581;51.988;5.854;2024-03-07T02:46:45;42.55;;;18.15;;
86001;SDS011;76581;51.988;5.854;2024-03-07T02:47:47;40.47;;;16.77;;
86001;SDS011;76581;51.988;5.854;2024-03-07T02:48:47;42.50;;;17.33;;
86001;SDS011;76581;51.988;5.854;2024-03-07T02:49:48;39.95;;;16.98;;
86001;SDS011;76581;51.988;5.854;2024-03-07T02:50:49;40.23;;;16.57;;
86001;SDS011;76581;51.988;5.854;2024-03-07T02:51:49;38.45;;;16.25;;
86001;SDS011;76581;51.988;5.854;2024-03-07T02:52:50;37.57;;;16.90;;
86001;SDS011;76581;51.988;5.854;2024-03-07T02:53:52;40.80;;;16.58;;
86001;SDS011;76581;51.988;5.854;2024-03-07T02:54:53;37.85;;;16.95;;
86001;SDS011;76581;51.988;5.854;2024-03-07T02:55:53;37.73;;;16.40;;
86001;SDS011;76581;51.988;5.854;2024-03-07T02:56:54;36.63;;;15.82;;
86001;SDS011;76581;51.988;5.854;2024-03-07T02:57:55;44.10;;;17.30;;
86001;SDS011;76581;51.988;5.854;2024-03-07T02:58:57;38.33;;;16.30;;
86001;SDS011;76581;51.988;5.854;2024-03-07T02:59:58;39.37;;;16.73;;
86001;SDS011;76581;51.988;5.854;2024-03-07T03:00:58;42.28;;;18.65;;
86001;SDS011;76581;51.988;5.854;2024-03-07T03:02:03;40.90;;;18.50;;
86001;SDS011;76581;51.988;5.854;2024-03-07T03:03:04;41.50;;;18.10;;
86001;SDS011;76581;51.988;5.854;2024-03-07T03:04:04;37.60;;;17.25;;
86001;SDS011;76581;51.988;5.854;2024-03-07T03:05:05;40.60;;;16.73;;
86001;SDS011;76581;51.988;5.854;2024-03-07T03:06:09;41.22;;;17.70;;
86001;SDS011;76581;51.988;5.854;2024-03-07T03:07:11;40.58;;;16.42;;
86001;SDS011;76581;51.988;5.854;2024-03-07T03:08:11;38.77;;;16.07;;
86001;SDS011;76581;51.988;5.854;2024-03-07T03:09:14;38.05;;;17.25;;
86001;SDS011;76581;51.988;5.854;2024-03-07T03:10:17;43.33;;;18.83;;
86001;SDS011;76581;51.988;5.854;2024-03-07T03:11:20;40.28;;;16.27;;
86001;SDS011;76581;51.988;5.854;2024-03-07T03:12:21;37.13;;;16.70;;
86001;SDS011;76581;51.988;5.854;2024-03-07T03:13:23;34.13;;;16.20;;
86001;SDS011;76581;51.988;5.854;2024-03-07T03:14:27;40.00;;;16.55;;
86001;SDS011;76581;51.988;5.854;2024-03-07T03:15:28;40.60;;;16.43;;
86001;SDS011;76581;51.988;5.854;2024-03-07T03:16:29;37.88;;;16.83;;
86001;SDS011;76581;51.988;5.854;2024-03-07T03:17:29;41.73;;;17.63;;
86001;SDS011;76581;51.988;5.854;2024-03-07T03:18:30;37.65;;;16.30;;
86001;SDS011;76581;51.988;5.854;2024-03-07T03:19:31;39.42;;;16.92;;
86001;SDS011;76581;51.988;5.854;2024-03-07T03:20:31;40.03;;;16.97;;
86001;SDS011;76581;51.988;5.854;2024-03-07T03:21:38;35.72;;;16.83;;
86001;SDS011;76581;51.988;5.854;2024-03-07T03:22:39;38.70;;;16.52;;
86001;SDS011;76581;51.988;5.854;2024-03-07T03:23:40;42.40;;;16.50;;
86001;SDS011;76581;51.988;5.854;2024-03-07T03:24:40;39.30;;;16.70;;
86001;SDS011;76581;51.988;5.854;2024-03-07T03:25:41;39.08;;;17.00;;
86001;SDS011;76581;51.988;5.854;2024-03-07T03:26:42;38.78;;;16.77;;
86001;SDS011;76581;51.988;5.854;2024-03-07T03:27:42;35.47;;;16.03;;
86001;SDS011;76581;51.988;5.854;2024-03-07T03:28:43;39.43;;;17.20;;
86001;SDS011;76581;51.988;5.854;2024-03-07T03:29:44;39.75;;;17.73;;
86001;SDS011;76581;51.988;5.854;2024-03-07T03:30:45;38.65;;;16.70;;
86001;SDS011;76581;51.988;5.854;2024-03-07T03:31:47;46.93;;;17.30;;
86001;SDS011;76581;51.988;5.854;2024-03-07T03:32:47;41.35;;;17.73;;
86001;SDS011;76581;51.988;5.854;2024-03-07T03:33:48;40.30;;;16.77;;
86001;SDS011;76581;51.988;5.854;2024-03-07T03:34:49;38.57;;;17.33;;
86001;SDS011;76581;51.988;5.854;2024-03-07T03:35:52;41.40;;;16.98;;
86001;SDS011;76581;51.988;5.854;2024-03-07T03:36:55;39.00;;;17.25;;
86001;SDS011;76581;51.988;5.854;2024-03-07T03:37:55;41.43;;;17.87;;
86001;SDS011;76581;51.988;5.854;2024-03-07T03:38:56;45.53;;;17.02;;
86001;SDS011;76581;51.988;5.854;2024-03-07T03:39:56;44.20;;;19.07;;
86001;SDS011;76581;51.988;5.854;2024-03-07T03:40:57;42.58;;;17.75;;
86001;SDS011;76581;51.988;5.854;2024-03-07T03:41:57;39.23;;;16.97;;
86001;SDS011;76581;51.988;5.854;2024-03-07T03:42:58;43.33;;;17.17;;
86001;SDS011;76581;51.988;5.854;2024-03-07T03:43:58;38.80;;;17.45;;
86001;SDS011;76581;51.988;5.854;2024-03-07T03:44:59;40.13;;;17.43;;
86001;SDS011;76581;51.988;5.854;2024-03-07T03:45:59;40.55;;;17.80;;
86001;SDS011;76581;51.988;5.854;2024-03-07T03:47:02;43.10;;;17.75;;
86001;SDS011;76581;51.988;5.854;2024-03-07T03:48:04;41.80;;;18.00;;
86001;SDS011;76581;51.988;5.854;2024-03-07T03:49:04;41.10;;;17.88;;
86001;SDS011;76581;51.988;5.854;2024-03-07T03:50:07;41.78;;;18.45;;
86001;SDS011;76581;51.988;5.854;2024-03-07T03:51:09;42.35;;;18.10;;
86001;SDS011;76581;51.988;5.854;2024-03-07T03:52:12;40.55;;;17.15;;
86001;SDS011;76581;51.988;5.854;2024-03-07T03:53:13;44.60;;;18.77;;
86001;SDS011;76581;51.988;5.854;2024-03-07T03:54:14;40.47;;;18.43;;
86001;SDS011;76581;51.988;5.854;2024-03-07T03:55:15;43.53;;;18.90;;
86001;SDS011;76581;51.988;5.854;2024-03-07T03:56:16;50.50;;;18.50;;
86001;SDS011;76581;51.988;5.854;2024-03-07T03:57:17;42.80;;;18.15;;
86001;SDS011;76581;51.988;5.854;2024-03-07T03:58:18;42.17;;;17.70;;
86001;SDS011;76581;51.988;5.854;2024-03-07T03:59:18;41.00;;;18.23;;
86001;SDS011;76581;51.988;5.854;2024-03-07T04:00:19;43.50;;;19.00;;
86001;SDS011;76581;51.988;5.854;2024-03-07T04:01:22;43.33;;;20.52;;
86001;SDS011;76581;51.988;5.854;2024-03-07T04:02:23;44.35;;;19.45;;
86001;SDS011;76581;51.988;5.854;2024-03-07T04:03:24;53.05;;;19.90;;
86001;SDS011;76581;51.988;5.854;2024-03-07T04:04:25;47.63;;;19.50;;
86001;SDS011;76581;51.988;5.854;2024-03-07T04:05:26;52.72;;;19.52;;
86001;SDS011;76581;51.988;5.854;2024-03-07T04:06:26;47.00;;;20.07;;
86001;SDS011;76581;51.988;5.854;2024-03-07T04:07:27;47.78;;;19.17;;
86001;SDS011;76581;51.988;5.854;2024-03-07T04:08:27;42.83;;;19.17;;
86001;SDS011;76581;51.988;5.854;2024-03-07T04:09:28;46.33;;;19.25;;
86001;SDS011;76581;51.988;5.854;2024-03-07T04:10:29;40.63;;;19.83;;
86001;SDS011;76581;51.988;5.854;2024-03-07T04:11:29;44.95;;;19.38;;
86001;SDS011;76581;51.988;5.854;2024-03-07T04:12:30;41.60;;;18.93;;
86001;SDS011;76581;51.988;5.854;2024-03-07T04:13:30;44.88;;;18.38;;
86001;SDS011;76581;51.988;5.854;2024-03-07T04:14:31;44.43;;;19.03;;
86001;SDS011;76581;51.988;5.854;2024-03-07T04:15:32;45.45;;;19.25;;
86001;SDS011;76581;51.988;5.854;2024-03-07T04:16:33;43.08;;;18.27;;
86001;SDS011;76581;51.988;5.854;2024-03-07T04:17:34;41.47;;;18.90;;
86001;SDS011;76581;51.988;5.854;2024-03-07T04:18:35;43.15;;;19.35;;
86001;SDS011;76581;51.988;5.854;2024-03-07T04:19:35;45.27;;;18.00;;
86001;SDS011;76581;51.988;5.854;2024-03-07T04:20:38;44.45;;;18.85;;
86001;SDS011;76581;51.988;5.854;2024-03-07T04:21:39;46.42;;;19.25;;
86001;SDS011;76581;51.988;5.854;2024-03-07T04:22:40;43.05;;;18.20;;
86001;SDS011;76581;51.988;5.854;2024-03-07T04:23:40;50.67;;;20.73;;
86001;SDS011;76581;51.988;5.854;2024-03-07T04:24:41;50.50;;;20.23;;
86001;SDS011;76581;51.988;5.854;2024-03-07T04:25:41;43.47;;;19.70;;
86001;SDS011;76581;51.988;5.854;2024-03-07T04:26:42;43.60;;;20.30;;
86001;SDS011;76581;51.988;5.854;2024-03-07T04:27:43;45.25;;;19.25;;
86001;SDS011;76581;51.988;5.854;2024-03-07T04:28:43;47.50;;;20.30;;
86001;SDS011;76581;51.988;5.854;2024-03-07T04:29:44;47.25;;;19.70;;
86001;SDS011;76581;51.988;5.854;2024-03-07T04:30:44;48.20;;;19.97;;
86001;SDS011;76581;51.988;5.854;2024-03-07T04:31:45;43.28;;;19.50;;
86001;SDS011;76581;51.988;5.854;2024-03-07T04:32:45;48.22;;;19.73;;
86001;SDS011;76581;51.988;5.854;2024-03-07T04:33:46;48.70;;;20.93;;
86001;SDS011;76581;51.988;5.854;2024-03-07T04:34:46;48.33;;;19.95;;
86001;SDS011;76581;51.988;5.854;2024-03-07T04:35:47;48.77;;;19.90;;
86001;SDS011;76581;51.988;5.854;2024-03-07T04:36:47;45.38;;;19.98;;
86001;SDS011;76581;51.988;5.854;2024-03-07T04:37:48;44.78;;;19.92;;
86001;SDS011;76581;51.988;5.854;2024-03-07T04:38:48;46.00;;;19.83;;
86001;SDS011;76581;51.988;5.854;2024-03-07T04:39:49;42.03;;;18.17;;
86001;SDS011;76581;51.988;5.854;2024-03-07T04:40:49;47.20;;;20.03;;
86001;SDS011;76581;51.988;5.854;2024-03-07T04:41:51;41.63;;;19.30;;
86001;SDS011;76581;51.988;5.854;2024-03-07T04:42:52;40.75;;;18.92;;
86001;SDS011;76581;51.988;5.854;2024-03-07T04:43:53;48.25;;;20.27;;
86001;SDS011;76581;51.988;5.854;2024-03-07T04:44:54;44.47;;;19.02;;
86001;SDS011;76581;51.988;5.854;2024-03-07T04:45:54;45.53;;;19.47;;
86001;SDS011;76581;51.988;5.854;2024-03-07T04:46:55;48.53;;;19.10;;
86001;SDS011;76581;51.988;5.854;2024-03-07T04:48:00;44.83;;;18.85;;
86001;SDS011;76581;51.988;5.854;2024-03-07T04:49:01;47.67;;;19.33;;
86001;SDS011;76581;51.988;5.854;2024-03-07T04:50:01;47.87;;;20.17;;
86001;SDS011;76581;51.988;5.854;2024-03-07T04:51:02;44.90;;;19.23;;
86001;SDS011;76581;51.988;5.854;2024-03-07T04:52:03;47.20;;;19.73;;
86001;SDS011;76581;51.988;5.854;2024-03-07T04:53:04;46.63;;;19.25;;
86001;SDS011;76581;51.988;5.854;2024-03-07T04:54:06;47.47;;;20.50;;
86001;SDS011;76581;51.988;5.854;2024-03-07T04:55:06;47.75;;;19.15;;
86001;SDS011;76581;51.988;5.854;2024-03-07T04:56:10;44.83;;;19.23;;
86001;SDS011;76581;51.988;5.854;2024-03-07T04:57:11;44.83;;;19.83;;
86001;SDS011;76581;51.988;5.854;2024-03-07T04:58:13;41.67;;;18.27;;
86001;SDS011;76581;51.988;5.854;2024-03-07T04:59:13;47.42;;;20.02;;
86001;SDS011;76581;51.988;5.854;2024-03-07T05:00:14;44.72;;;19.20;;
86001;SDS011;76581;51.988;5.854;2024-03-07T05:01:15;47.03;;;20.20;;
86001;SDS011;76581;51.988;5.854;2024-03-07T05:02:16;42.60;;;18.75;;
86001;SDS011;76581;51.988;5.854;2024-03-07T05:03:16;45.00;;;19.13;;
86001;SDS011;76581;51.988;5.854;2024-03-07T05:04:17;45.03;;;19.45;;
86001;SDS011;76581;51.988;5.854;2024-03-07T05:05:18;46.20;;;20.40;;
86001;SDS011;76581;51.988;5.854;2024-03-07T05:06:22;43.35;;;19.02;;
86001;SDS011;76581;51.988;5.854;2024-03-07T05:07:23;45.50;;;18.13;;
86001;SDS011;76581;51.988;5.854;2024-03-07T05:08:23;44.30;;;20.10;;
86001;SDS011;76581;51.988;5.854;2024-03-07T05:09:24;48.87;;;19.90;;
86001;SDS011;76581;51.988;5.854;2024-03-07T05:10:25;47.20;;;20.45;;
86001;SDS011;76581;51.988;5.854;2024-03-07T05:11:29;43.85;;;18.65;;
86001;SDS011;76581;51.988;5.854;2024-03-07T05:12:31;47.40;;;19.30;;
86001;SDS011;76581;51.988;5.854;2024-03-07T05:13:32;48.22;;;20.25;;
86001;SDS011;76581;51.988;5.854;2024-03-07T05:14:32;41.77;;;18.50;;
86001;SDS011;76581;51.988;5.854;2024-03-07T05:15:33;45.07;;;19.87;;
86001;SDS011;76581;51.988;5.854;2024-03-07T05:16:33;44.55;;;19.20;;
86001;SDS011;76581;51.988;5.854;2024-03-07T05:17:33;42.60;;;20.13;;
86001;SDS011;76581;51.988;5.854;2024-03-07T05:18:36;45.17;;;19.05;;
86001;SDS011;76581;51.988;5.854;2024-03-07T05:19:36;44.10;;;19.17;;
86001;SDS011;76581;51.988;5.854;2024-03-07T05:20:37;42.17;;;18.38;;
86001;SDS011;76581;51.988;5.854;2024-03-07T05:21:38;46.40;;;19.17;;
86001;SDS011;76581;51.988;5.854;2024-03-07T05:22:40;44.88;;;20.25;;
86001;SDS011;76581;51.988;5.854;2024-03-07T05:23:44;41.83;;;18.67;;
86001;SDS011;76581;51.988;5.854;2024-03-07T05:24:45;47.83;;;19.27;;
86001;SDS011;76581;51.988;5.854;2024-03-07T05:25:45;44.27;;;18.83;;
86001;SDS011;76581;51.988;5.854;2024-03-07T05:26:46;45.40;;;20.30;;
86001;SDS011;76581;51.988;5.854;2024-03-07T05:27:47;46.33;;;19.80;;
86001;SDS011;76581;51.988;5.854;2024-03-07T05:28:50;44.22;;;20.08;;
86001;SDS011;76581;51.988;5.854;2024-03-07T05:29:51;42.67;;;18.58;;
86001;SDS011;76581;51.988;5.854;2024-03-07T05:30:52;42.08;;;19.70;;
86001;SDS011;76581;51.988;5.854;2024-03-07T05:31:53;42.10;;;20.20;;
86001;SDS011;76581;51.988;5.854;2024-03-07T05:32:53;43.80;;;18.67;;
86001;SDS011;76581;51.988;5.854;2024-03-07T05:33:54;41.72;;;19.25;;
86001;SDS011;76581;51.988;5.854;2024-03-07T05:34:54;43.67;;;19.87;;
86001;SDS011;76581;51.988;5.854;2024-03-07T05:35:55;40.90;;;18.42;;
86001;SDS011;76581;51.988;5.854;2024-03-07T05:37:14;44.65;;;18.92;;
86001;SDS011;76581;51.988;5.854;2024-03-07T05:38:15;41.45;;;18.00;;
86001;SDS011;76581;51.988;5.854;2024-03-07T05:39:16;42.53;;;18.30;;
86001;SDS011;76581;51.988;5.854;2024-03-07T05:40:17;45.15;;;19.85;;
86001;SDS011;76581;51.988;5.854;2024-03-07T05:41:18;45.97;;;19.20;;
86001;SDS011;76581;51.988;5.854;2024-03-07T05:42:18;45.53;;;20.47;;
86001;SDS011;76581;51.988;5.854;2024-03-07T05:43:19;40.58;;;17.83;;
86001;SDS011;76581;51.988;5.854;2024-03-07T05:44:20;39.93;;;17.83;;
86001;SDS011;76581;51.988;5.854;2024-03-07T05:45:22;43.13;;;18.17;;
86001;SDS011;76581;51.988;5.854;2024-03-07T05:46:23;43.83;;;19.10;;
86001;SDS011;76581;51.988;5.854;2024-03-07T05:47:24;45.50;;;20.03;;
86001;SDS011;76581;51.988;5.854;2024-03-07T05:48:24;45.30;;;20.17;;
86001;SDS011;76581;51.988;5.854;2024-03-07T05:49:25;41.70;;;19.27;;
86001;SDS011;76581;51.988;5.854;2024-03-07T05:50:25;39.97;;;18.35;;
86001;SDS011;76581;51.988;5.854;2024-03-07T05:51:26;43.70;;;18.87;;
86001;SDS011;76581;51.988;5.854;2024-03-07T05:52:27;46.08;;;18.45;;
86001;SDS011;76581;51.988;5.854;2024-03-07T05:53:28;41.37;;;17.90;;
86001;SDS011;76581;51.988;5.854;2024-03-07T05:54:28;45.38;;;19.38;;
86001;SDS011;76581;51.988;5.854;2024-03-07T05:55:29;42.00;;;18.80;;
86001;SDS011;76581;51.988;5.854;2024-03-07T05:56:30;42.70;;;19.52;;
86001;SDS011;76581;51.988;5.854;2024-03-07T05:57:30;42.60;;;18.27;;